createdAt,value
2023-04-29T00:00:00.510Z,2
2023-04-29T00:05:00.788Z,1
2023-04-29T00:10:00.486Z,1
2023-04-29T00:15:00.507Z,0
2023-04-29T00:20:00.558Z,1
2023-04-29T00:25:00.519Z,1
2023-04-29T00:35:00.510Z,1
2023-04-29T00:40:00.500Z,3
2023-04-29T00:55:00.583Z,3
2023-04-29T01:00:00.565Z,1
2023-04-29T01:10:00.466Z,1
2023-04-29T01:15:00.482Z,4
2023-04-29T01:20:00.485Z,3
2023-04-29T01:25:00.479Z,3
2023-04-29T01:35:00.488Z,2
2023-04-29T01:40:00.464Z,1
2023-04-29T01:45:00.477Z,2
2023-04-29T01:50:00.472Z,1
2023-04-29T01:55:00.478Z,2
2023-04-29T02:00:00.517Z,3
2023-04-29T02:05:00.555Z,1
2023-04-29T02:10:00.469Z,1
2023-04-29T02:15:00.510Z,3
2023-04-29T02:20:00.500Z,1
2023-04-29T02:30:00.475Z,1
2023-04-29T02:45:00.520Z,1
2023-04-29T02:50:00.474Z,1
2023-04-29T03:00:00.534Z,1
2023-04-29T03:05:00.463Z,1
2023-04-29T03:10:00.469Z,1
2023-04-29T03:15:00.512Z,1
2023-04-29T03:20:00.513Z,1
2023-04-29T03:25:00.501Z,3
2023-04-29T03:30:00.508Z,1
2023-04-29T03:35:00.499Z,1
2023-04-29T03:40:00.473Z,1
2023-04-29T03:45:00.519Z,1
2023-04-29T03:50:00.616Z,1
2023-04-29T03:55:00.497Z,1
2023-04-29T04:00:00.497Z,1
2023-04-29T04:05:00.532Z,1
2023-04-29T04:10:00.505Z,1
2023-04-29T04:15:00.463Z,0
2023-04-29T04:20:00.498Z,1
2023-04-29T04:25:00.499Z,0
2023-04-29T04:30:00.518Z,1
2023-04-29T04:35:00.522Z,1
2023-04-29T04:40:00.464Z,0
2023-04-29T04:45:00.515Z,2
2023-04-29T04:50:00.585Z,1
2023-04-29T04:55:00.471Z,1
2023-04-29T05:05:00.515Z,1
2023-04-29T05:10:00.518Z,0
2023-04-29T05:15:00.522Z,1
2023-04-29T05:20:00.545Z,1
2023-04-29T05:25:00.496Z,1
2023-04-29T05:35:00.517Z,2
2023-04-29T05:40:00.515Z,2
2023-04-29T05:45:00.502Z,2
2023-04-29T05:55:00.504Z,1
2023-04-29T06:00:00.534Z,2
2023-04-29T06:05:00.720Z,3
2023-04-29T06:10:00.527Z,2
2023-04-29T06:15:00.511Z,3
2023-04-29T06:20:00.486Z,4
2023-04-29T06:25:00.532Z,2
2023-04-29T06:30:00.529Z,2
2023-04-29T06:35:00.521Z,2
2023-04-29T06:45:00.509Z,3
2023-04-29T06:50:00.503Z,4
2023-04-29T06:55:00.519Z,2
2023-04-29T07:05:00.545Z,4
2023-04-29T07:10:00.473Z,3
2023-04-29T07:15:00.493Z,3
2023-04-29T07:20:00.534Z,3
2023-04-29T07:25:00.463Z,3
2023-04-29T07:30:00.493Z,2
2023-04-29T07:35:00.648Z,3
2023-04-29T07:40:00.465Z,4
2023-04-29T07:45:00.519Z,4
2023-04-29T07:50:00.517Z,3
2023-04-29T07:55:00.514Z,4
2023-04-29T08:00:00.502Z,2
2023-04-29T08:05:01.053Z,2
2023-04-29T08:10:00.499Z,3
2023-04-29T08:15:00.443Z,3
2023-04-29T08:20:00.470Z,3
2023-04-29T08:25:00.495Z,2
2023-04-29T08:30:00.743Z,3
2023-04-29T08:35:00.484Z,5
2023-04-29T08:40:00.459Z,4
2023-04-29T08:45:00.571Z,4
2023-04-29T08:50:00.476Z,4
2023-04-29T08:55:00.491Z,4
2023-04-29T09:00:00.503Z,4
2023-04-29T09:05:00.692Z,2
2023-04-29T09:10:00.502Z,3
2023-04-29T09:15:00.581Z,3
2023-04-29T09:20:02.104Z,4
2023-04-29T09:25:00.490Z,4
2023-04-29T09:30:00.518Z,4
2023-04-29T09:35:00.558Z,3
2023-04-29T09:40:00.471Z,3
2023-04-29T09:45:00.533Z,3
2023-04-29T09:50:00.502Z,4
2023-04-29T09:55:00.508Z,3
2023-04-29T10:00:00.511Z,4
2023-04-29T10:05:00.561Z,5
2023-04-29T10:10:00.516Z,4
2023-04-29T10:15:00.517Z,3
2023-04-29T10:20:00.476Z,5
2023-04-29T10:25:00.502Z,4
2023-04-29T10:30:00.514Z,5
2023-04-29T10:35:00.484Z,3
2023-04-29T10:40:00.503Z,4
2023-04-29T10:45:00.492Z,5
2023-04-29T10:50:00.470Z,4
2023-04-29T10:55:00.550Z,4
2023-04-29T11:00:00.464Z,4
2023-04-29T11:05:00.508Z,3
2023-04-29T11:10:00.605Z,3
2023-04-29T11:15:00.513Z,1
2023-04-29T11:20:00.520Z,3
2023-04-29T11:25:00.577Z,5
2023-04-29T11:30:00.844Z,4
2023-04-29T11:35:00.669Z,4
2023-04-29T11:40:00.564Z,5
2023-04-29T11:45:00.606Z,5
2023-04-29T11:50:00.498Z,6
2023-04-29T11:55:00.508Z,4
2023-04-29T12:00:00.527Z,5
2023-04-29T12:05:00.908Z,5
2023-04-29T12:10:00.482Z,5
2023-04-29T12:15:00.487Z,3
2023-04-29T12:20:00.529Z,1
2023-04-29T12:25:00.542Z,4
2023-04-29T12:30:00.552Z,4
2023-04-29T12:35:00.522Z,4
2023-04-29T12:40:00.528Z,4
2023-04-29T12:45:00.586Z,5
2023-04-29T12:50:00.519Z,4
2023-04-29T12:55:00.519Z,4
2023-04-29T13:00:00.510Z,3
2023-04-29T13:05:00.630Z,4
2023-04-29T13:10:00.856Z,4
2023-04-29T13:15:00.568Z,4
2023-04-29T13:20:00.459Z,3
2023-04-29T13:25:00.494Z,1
2023-04-29T13:30:00.508Z,5
2023-04-29T13:35:00.473Z,4
2023-04-29T13:40:01.832Z,-1
2023-04-29T13:45:00.689Z,3
2023-04-29T13:55:39.357Z,4
2023-04-29T14:00:00.770Z,3
2023-04-29T14:05:00.975Z,5
2023-04-29T14:10:00.517Z,4
2023-04-29T14:15:00.735Z,4
2023-04-29T14:20:00.539Z,3
2023-04-29T14:25:00.498Z,4
2023-04-29T14:30:00.555Z,3
2023-04-29T14:35:00.455Z,5
2023-04-29T14:40:00.541Z,5
2023-04-29T14:45:00.502Z,4
2023-04-29T14:50:00.504Z,4
2023-04-29T14:55:00.474Z,4
2023-04-29T15:00:00.485Z,1
2023-04-29T15:05:00.485Z,3
2023-04-29T15:10:00.502Z,4
2023-04-29T15:15:00.475Z,3
2023-04-29T15:20:00.568Z,4
2023-04-29T15:25:00.641Z,1
2023-04-29T15:30:00.522Z,2
2023-04-29T15:35:00.614Z,3
2023-04-29T15:40:00.493Z,3
2023-04-29T15:45:00.542Z,3
2023-04-29T15:50:00.530Z,4
2023-04-29T15:55:00.615Z,3
2023-04-29T16:00:00.735Z,5
2023-04-29T16:05:00.521Z,5
2023-04-29T16:10:00.488Z,4
2023-04-29T16:15:00.479Z,4
2023-04-29T16:20:00.527Z,4
2023-04-29T16:25:00.488Z,4
2023-04-29T16:30:00.900Z,3
2023-04-29T16:35:01.468Z,4
2023-04-29T16:40:00.512Z,3
2023-04-29T16:45:00.482Z,4
2023-04-29T16:50:00.507Z,3
2023-04-29T16:55:00.547Z,3
2023-04-29T17:00:00.646Z,3
2023-04-29T17:05:00.544Z,5
2023-04-29T17:10:00.500Z,4
2023-04-29T17:15:00.551Z,-1
2023-04-29T17:20:00.568Z,-1
2023-04-29T17:25:00.542Z,3
2023-04-29T17:30:00.607Z,4
2023-04-29T17:35:00.494Z,3
2023-04-29T17:40:00.501Z,3
2023-04-29T17:45:00.501Z,3
2023-04-29T17:50:02.421Z,3
2023-04-29T17:55:00.521Z,3
2023-04-29T18:00:00.505Z,3
2023-04-29T18:05:00.625Z,2
2023-04-29T18:20:00.530Z,1
2023-04-29T18:25:00.525Z,2
2023-04-29T18:35:00.485Z,1
2023-04-29T18:40:00.492Z,0
2023-04-29T18:45:00.546Z,0
2023-04-29T18:55:00.284Z,0
2023-04-29T19:00:00.258Z,0
2023-04-29T19:05:00.397Z,0
2023-04-29T19:10:00.475Z,0
2023-04-29T19:20:00.513Z,0
2023-04-29T19:25:00.530Z,1
2023-04-29T19:30:00.487Z,0
2023-04-29T19:35:00.451Z,0
2023-04-29T19:40:00.479Z,0
2023-04-29T19:45:00.462Z,0
2023-04-29T19:50:00.493Z,0
2023-04-29T19:55:00.451Z,0
2023-04-29T20:00:00.511Z,0
2023-04-29T20:05:00.468Z,0
2023-04-29T20:10:00.594Z,0
2023-04-29T20:15:00.504Z,0
2023-04-29T20:20:00.503Z,0
2023-04-29T20:25:00.484Z,0
2023-04-29T20:30:00.519Z,0
2023-04-29T20:35:00.470Z,0
2023-04-29T20:40:00.493Z,0
2023-04-29T20:45:00.434Z,1
2023-04-29T20:55:00.468Z,3
2023-04-29T21:00:00.544Z,3
2023-04-29T21:05:00.612Z,3
2023-04-29T21:10:00.575Z,3
2023-04-29T21:15:00.455Z,2
2023-04-29T21:20:00.499Z,3
2023-04-29T21:25:00.467Z,3
2023-04-29T21:30:00.490Z,1
2023-04-29T21:45:00.562Z,1
2023-04-29T21:50:00.534Z,1
2023-04-29T21:55:00.454Z,2
2023-04-29T22:00:00.537Z,2
2023-04-29T22:05:00.453Z,3
2023-04-29T22:10:00.492Z,2
2023-04-29T22:20:00.505Z,2
2023-04-29T22:25:00.349Z,1
2023-04-29T22:30:00.526Z,1
2023-04-29T22:35:00.882Z,0
2023-04-29T22:40:00.504Z,0
2023-04-29T22:50:00.523Z,2
2023-04-29T22:55:00.501Z,1
2023-04-29T23:00:00.487Z,1
2023-04-29T23:05:00.712Z,0
2023-04-29T23:10:00.571Z,0
2023-04-29T23:15:00.471Z,0
2023-04-29T23:20:00.516Z,0
2023-04-29T23:25:00.462Z,1
2023-04-29T23:30:00.530Z,0
2023-04-29T23:35:00.439Z,1
2023-04-29T23:40:00.559Z,2
2023-04-29T23:45:00.562Z,1
2023-04-29T23:50:00.450Z,0
2023-04-29T23:55:00.467Z,0
